createdAt,value
2019-02-05T00:01:03.862Z,14.27
2019-02-05T00:03:32.071Z,15.57
2019-02-05T00:12:44.257Z,16.07
2019-02-05T00:15:18.394Z,16.57
2019-02-05T00:17:48.080Z,16.70
2019-02-05T00:20:18.354Z,15.83
2019-02-05T00:22:46.402Z,16.87
2019-02-05T00:25:14.638Z,16.37
2019-02-05T00:27:43.027Z,16.97
2019-02-05T00:30:30.935Z,17.87
2019-02-05T00:33:00.502Z,17.03
2019-02-05T00:35:28.669Z,17.40
2019-02-05T00:38:17.450Z,18.20
2019-02-05T00:40:47.094Z,17.63
2019-02-05T00:43:16.011Z,19.47
2019-02-05T00:45:44.322Z,17.70
2019-02-05T00:48:12.566Z,17.73
2019-02-05T00:50:43.053Z,16.40
2019-02-05T00:53:11.266Z,17.63
2019-02-05T00:55:40.412Z,20.17
2019-02-05T00:58:08.800Z,19.27
2019-02-05T01:00:38.890Z,18.83
2019-02-05T01:03:09.554Z,17.70
2019-02-05T01:05:58.059Z,18.37
2019-02-05T01:08:27.582Z,18.77
2019-02-05T01:10:55.795Z,18.23
2019-02-05T01:13:23.940Z,19.87
2019-02-05T01:15:52.182Z,19.30
2019-02-05T01:18:20.405Z,17.87
2019-02-05T01:20:50.127Z,19.23
2019-02-05T01:23:18.295Z,19.80
2019-02-05T01:25:46.348Z,18.87
2019-02-05T01:28:14.736Z,18.13
2019-02-05T01:30:43.196Z,18.93
2019-02-05T01:33:11.477Z,20.53
2019-02-05T01:35:39.532Z,20.43
2019-02-05T01:38:07.777Z,20.00
2019-02-05T01:40:38.229Z,19.53
2019-02-05T01:43:08.086Z,20.17
2019-02-05T01:45:36.107Z,21.67
2019-02-05T01:48:04.434Z,20.37
2019-02-05T01:50:34.197Z,22.17
2019-02-05T01:53:02.799Z,19.87
2019-02-05T01:55:31.792Z,21.63
2019-02-05T01:57:59.773Z,22.07
2019-02-05T02:00:35.007Z,22.93
2019-02-05T02:03:09.132Z,22.30
2019-02-05T02:05:39.395Z,21.50
2019-02-05T02:08:09.203Z,22.63
2019-02-05T02:10:41.008Z,22.03
2019-02-05T02:13:09.012Z,22.53
2019-02-05T02:15:37.966Z,24.50
2019-02-05T02:18:10.023Z,22.43
2019-02-05T02:20:38.475Z,24.80
2019-02-05T02:23:07.387Z,24.33
2019-02-05T02:25:36.591Z,23.80
2019-02-05T02:28:05.477Z,24.63
2019-02-05T02:30:40.661Z,27.53
2019-02-05T02:33:08.700Z,24.63
2019-02-05T02:35:37.487Z,26.10
2019-02-05T02:38:05.402Z,25.87
2019-02-05T02:40:33.321Z,24.70
2019-02-05T02:43:01.765Z,25.30
2019-02-05T02:45:31.524Z,26.00
2019-02-05T02:48:00.860Z,26.70
2019-02-05T02:50:28.709Z,25.83
2019-02-05T02:52:57.376Z,27.43
2019-02-05T02:55:25.288Z,27.43
2019-02-05T02:57:52.846Z,26.10
2019-02-05T03:00:20.355Z,25.13
2019-02-05T03:02:47.920Z,27.80
2019-02-05T03:05:34.866Z,26.47
2019-02-05T03:08:02.353Z,27.77
2019-02-05T03:10:30.164Z,27.90
2019-02-05T03:12:57.924Z,29.90
2019-02-05T03:15:25.432Z,27.67
2019-02-05T03:17:53.020Z,26.77
2019-02-05T03:20:20.559Z,27.87
2019-02-05T03:22:48.021Z,28.47
2019-02-05T03:25:18.820Z,26.57
2019-02-05T03:27:47.965Z,27.53
2019-02-05T03:30:17.356Z,28.90
2019-02-05T03:32:44.829Z,29.63
2019-02-05T03:35:12.526Z,28.70
2019-02-05T03:37:40.010Z,28.27
2019-02-05T03:40:15.779Z,29.27
2019-02-05T03:42:43.246Z,27.57
2019-02-05T03:45:10.812Z,28.00
2019-02-05T03:47:38.297Z,29.13
2019-02-05T03:50:05.837Z,27.63
2019-02-05T03:52:42.717Z,26.57
2019-02-05T03:55:38.985Z,30.90
2019-02-05T03:59:06.796Z,28.27
2019-02-05T04:02:00.274Z,27.43
2019-02-05T04:05:33.945Z,27.90
2019-02-05T04:08:29.164Z,28.70
2019-02-05T04:11:53.676Z,29.23
2019-02-05T04:14:58.989Z,26.00
2019-02-05T04:17:56.116Z,30.60
2019-02-05T04:20:56.031Z,28.97
2019-02-05T04:24:17.544Z,30.13
2019-02-05T04:27:09.589Z,30.07
2019-02-05T04:30:40.376Z,29.90
2019-02-05T04:33:33.815Z,29.43
2019-02-05T04:36:35.071Z,29.27
2019-02-05T04:39:45.334Z,31.73
2019-02-05T04:42:27.038Z,30.93
2019-02-05T04:45:34.955Z,31.97
2019-02-05T04:48:50.143Z,30.90
2019-02-05T04:51:49.622Z,30.73
2019-02-05T04:54:57.688Z,29.90
2019-02-05T04:58:28.630Z,31.70
2019-02-05T05:01:36.882Z,29.60
2019-02-05T05:04:33.715Z,30.40
2019-02-05T05:07:10.494Z,33.33
2019-02-05T05:10:00.568Z,31.27
2019-02-05T05:12:28.587Z,33.33
2019-02-05T05:14:56.071Z,34.83
2019-02-05T05:17:23.601Z,32.60
2019-02-05T05:19:51.585Z,30.97
2019-02-05T05:22:19.051Z,30.03
2019-02-05T05:24:46.571Z,31.17
2019-02-05T05:27:15.573Z,28.93
2019-02-05T05:29:43.256Z,32.53
2019-02-05T05:32:10.762Z,31.87
2019-02-05T05:34:41.006Z,31.73
2019-02-05T05:37:07.468Z,32.70
2019-02-05T05:39:35.007Z,32.70
2019-02-05T05:42:03.236Z,30.77
2019-02-05T05:44:30.728Z,31.97
2019-02-05T05:46:58.226Z,31.63
2019-02-05T05:49:25.748Z,34.10
2019-02-05T05:51:53.535Z,32.07
2019-02-05T05:54:21.142Z,31.87
2019-02-05T05:56:48.654Z,32.33
2019-02-05T05:59:16.219Z,33.23
2019-02-05T06:01:43.666Z,34.60
2019-02-05T06:04:11.635Z,33.50
2019-02-05T06:06:39.486Z,33.57
2019-02-05T06:09:08.096Z,31.93
2019-02-05T06:11:35.545Z,32.33
2019-02-05T06:14:04.288Z,32.03
2019-02-05T06:16:31.734Z,31.47
2019-02-05T06:18:59.196Z,33.30
2019-02-05T06:21:26.645Z,31.00
2019-02-05T06:23:54.208Z,33.70
2019-02-05T06:26:21.871Z,32.97
2019-02-05T06:28:49.307Z,31.83
2019-02-05T06:31:16.962Z,33.63
2019-02-05T06:33:44.386Z,32.67
2019-02-05T06:36:11.827Z,33.33
2019-02-05T06:38:39.250Z,34.00
2019-02-05T06:41:06.698Z,31.83
2019-02-05T06:43:34.171Z,33.40
2019-02-05T06:46:01.652Z,33.20
2019-02-05T06:48:29.122Z,32.70
2019-02-05T06:50:56.975Z,33.80
2019-02-05T06:53:24.444Z,34.00
2019-02-05T06:55:51.892Z,33.57
2019-02-05T06:58:19.343Z,32.63
2019-02-05T07:00:46.818Z,32.20
2019-02-05T07:03:14.745Z,32.10
2019-02-05T07:05:42.222Z,32.87
2019-02-05T07:08:09.660Z,33.43
2019-02-05T07:10:37.132Z,31.80
2019-02-05T07:13:04.620Z,31.30
2019-02-05T07:15:32.084Z,31.37
2019-02-05T07:17:59.525Z,30.10
2019-02-05T07:20:27.015Z,29.70
2019-02-05T07:22:55.800Z,33.63
2019-02-05T07:25:23.335Z,32.13
2019-02-05T07:27:50.777Z,29.83
2019-02-05T07:30:20.164Z,32.07
2019-02-05T07:32:47.611Z,31.10
2019-02-05T07:35:15.052Z,31.07
2019-02-05T07:37:42.629Z,33.77
2019-02-05T07:40:12.507Z,31.43
2019-02-05T07:42:40.170Z,34.87
2019-02-05T07:45:10.471Z,33.17
2019-02-05T07:47:37.952Z,31.73
2019-02-05T07:50:07.701Z,33.23
2019-02-05T07:52:36.044Z,31.40
2019-02-05T07:55:04.087Z,33.97
2019-02-05T07:57:31.519Z,34.57
2019-02-05T07:59:59.310Z,33.33
2019-02-05T08:02:26.767Z,31.43
2019-02-05T08:04:54.191Z,31.43
2019-02-05T08:07:21.654Z,32.57
2019-02-05T08:09:49.105Z,32.93
2019-02-05T08:12:16.606Z,32.43
2019-02-05T08:14:47.054Z,34.50
2019-02-05T08:17:14.504Z,31.20
2019-02-05T08:19:41.993Z,32.90
2019-02-05T08:22:09.916Z,32.53
2019-02-05T08:24:37.667Z,31.17
2019-02-05T08:27:05.094Z,30.53
2019-02-05T08:29:32.538Z,30.70
2019-02-05T08:32:00.018Z,30.17
2019-02-05T08:34:27.528Z,31.40
2019-02-05T08:36:54.978Z,30.60
2019-02-05T08:39:22.432Z,28.20
2019-02-05T08:41:50.080Z,28.90
2019-02-05T08:44:17.535Z,29.90
2019-02-05T08:46:44.955Z,29.63
2019-02-05T08:49:12.401Z,30.33
2019-02-05T08:51:39.863Z,29.77
2019-02-05T08:54:07.706Z,29.87
2019-02-05T08:56:35.179Z,28.97
2019-02-05T08:59:02.616Z,27.83
2019-02-05T09:01:30.050Z,29.70
2019-02-05T09:03:57.699Z,27.60
2019-02-05T09:06:25.133Z,28.17
2019-02-05T09:08:52.599Z,27.40
2019-02-05T09:11:20.027Z,26.20
2019-02-05T09:13:47.495Z,27.77
2019-02-05T09:16:14.919Z,26.47
2019-02-05T09:18:42.400Z,25.47
2019-02-05T09:21:09.810Z,25.90
2019-02-05T09:23:37.570Z,25.33
2019-02-05T09:26:05.004Z,25.60
2019-02-05T09:28:32.440Z,27.57
2019-02-05T09:31:00.014Z,26.00
2019-02-05T09:33:27.518Z,26.53
2019-02-05T09:35:55.020Z,25.37
2019-02-05T09:38:22.451Z,26.70
2019-02-05T09:40:50.014Z,27.30
2019-02-05T09:43:17.626Z,25.83
2019-02-05T09:45:45.136Z,25.93
2019-02-05T09:48:12.640Z,27.07
2019-02-05T09:50:44.652Z,26.30
2019-02-05T09:53:09.868Z,26.57
2019-02-05T09:55:37.468Z,26.70
2019-02-05T09:58:05.068Z,25.37
2019-02-05T10:00:34.852Z,26.17
2019-02-05T10:03:04.202Z,26.90
2019-02-05T10:05:32.182Z,27.13
2019-02-05T10:07:59.966Z,26.43
2019-02-05T10:10:27.609Z,26.10
2019-02-05T10:12:55.161Z,26.57
2019-02-05T10:15:27.743Z,26.20
2019-02-05T10:17:55.426Z,25.57
2019-02-05T10:20:23.406Z,25.37
2019-02-05T10:22:51.715Z,25.93
2019-02-05T10:25:19.167Z,25.70
2019-02-05T10:27:46.746Z,23.70
2019-02-05T10:30:20.137Z,24.70
2019-02-05T10:32:47.775Z,24.60
2019-02-05T10:35:15.721Z,25.40
2019-02-05T10:37:43.411Z,24.33
2019-02-05T10:40:10.999Z,25.60
2019-02-05T10:42:38.881Z,26.00
2019-02-05T10:45:07.728Z,25.13
2019-02-05T10:47:35.163Z,25.00
2019-02-05T10:50:03.438Z,23.43
2019-02-05T10:52:31.030Z,23.90
2019-02-05T10:54:58.759Z,22.43
2019-02-05T10:57:26.258Z,23.60
2019-02-05T10:59:54.411Z,21.60
2019-02-05T11:02:22.063Z,21.83
2019-02-05T11:04:49.493Z,21.37
2019-02-05T11:07:16.950Z,20.97
2019-02-05T11:09:44.408Z,20.97
2019-02-05T11:12:11.831Z,21.82
2019-02-05T11:14:39.496Z,19.67
2019-02-05T11:17:06.941Z,19.67
2019-02-05T11:19:34.428Z,21.40
2019-02-05T11:22:01.859Z,21.12
2019-02-05T11:24:29.307Z,19.80
2019-02-05T11:26:56.758Z,20.17
2019-02-05T11:29:24.272Z,21.63
2019-02-05T11:31:51.689Z,19.77
2019-02-05T11:34:19.450Z,21.20
2019-02-05T11:36:46.915Z,21.95
2019-02-05T11:39:15.218Z,21.00
2019-02-05T11:41:42.650Z,20.37
2019-02-05T11:44:10.110Z,19.57
2019-02-05T11:46:37.586Z,19.23
2019-02-05T11:49:05.031Z,21.25
2019-02-05T11:51:32.867Z,17.27
2019-02-05T11:54:00.627Z,18.42
2019-02-05T11:56:28.075Z,17.87
2019-02-05T11:58:55.557Z,16.80
2019-02-05T12:01:38.121Z,19.75
2019-02-05T12:03:57.187Z,17.40
2019-02-05T12:06:24.955Z,17.98
2019-02-05T12:08:52.413Z,17.10
2019-02-05T12:11:19.840Z,16.10
2019-02-05T12:13:47.299Z,16.85
2019-02-05T12:16:14.718Z,15.28
2019-02-05T12:18:42.221Z,15.70
2019-02-05T12:21:09.640Z,15.53
2019-02-05T12:23:37.118Z,15.20
2019-02-05T12:26:04.576Z,15.43
2019-02-05T12:28:32.406Z,16.37
2019-02-05T12:30:59.941Z,14.63
2019-02-05T12:33:27.645Z,14.83
2019-02-05T12:35:55.087Z,12.88
2019-02-05T12:38:22.783Z,11.03
2019-02-05T12:40:50.247Z,11.22
2019-02-05T12:43:17.688Z,9.63
2019-02-05T12:45:45.146Z,9.70
2019-02-05T12:48:12.574Z,9.13
2019-02-05T12:50:40.338Z,10.68
2019-02-05T12:53:08.169Z,8.93
2019-02-05T12:55:35.643Z,9.75
2019-02-05T12:58:03.922Z,10.48
2019-02-05T13:00:36.050Z,10.50
2019-02-05T13:03:04.506Z,11.03
2019-02-05T13:05:31.958Z,9.45
2019-02-05T13:08:05.348Z,10.13
2019-02-05T13:10:34.064Z,10.93
2019-02-05T13:13:01.592Z,12.40
2019-02-05T13:15:29.506Z,11.60
2019-02-05T13:17:56.959Z,10.43
2019-02-05T13:20:26.547Z,11.35
2019-02-05T13:22:54.396Z,12.47
2019-02-05T13:25:23.635Z,11.17
2019-02-05T13:27:51.394Z,9.67
2019-02-05T13:30:21.363Z,10.03
2019-02-05T13:32:48.849Z,9.47
2019-02-05T13:35:17.109Z,10.40
2019-02-05T13:37:44.681Z,10.57
2019-02-05T13:40:14.509Z,11.07
2019-02-05T13:42:41.976Z,10.63
2019-02-05T13:45:09.892Z,10.33
2019-02-05T13:47:37.334Z,10.73
2019-02-05T13:50:07.831Z,10.90
2019-02-05T13:52:35.763Z,11.30
2019-02-05T13:55:06.347Z,10.63
2019-02-05T13:57:33.791Z,9.43
2019-02-05T14:00:01.235Z,11.30
2019-02-05T14:02:28.716Z,10.87
2019-02-05T14:04:56.165Z,10.63
2019-02-05T14:07:23.622Z,10.97
2019-02-05T14:09:51.073Z,10.73
2019-02-05T14:12:21.722Z,11.00
2019-02-05T14:14:48.087Z,10.27
2019-02-05T14:17:15.535Z,9.23
2019-02-05T14:19:43.074Z,10.57
2019-02-05T14:22:10.572Z,10.97
2019-02-05T14:24:38.071Z,9.97
2019-02-05T14:27:05.605Z,10.37
2019-02-05T14:29:33.355Z,10.53
2019-02-05T14:32:00.843Z,10.37
2019-02-05T14:34:28.325Z,10.40
2019-02-05T14:36:55.774Z,10.63
2019-02-05T14:39:23.267Z,10.33
2019-02-05T14:41:50.723Z,12.20
2019-02-05T14:44:18.191Z,11.33
2019-02-05T14:46:45.649Z,11.30
2019-02-05T14:49:13.122Z,12.10
2019-02-05T14:51:40.652Z,11.47
2019-02-05T14:54:08.124Z,11.77
2019-02-05T14:56:35.639Z,12.50
2019-02-05T14:59:03.434Z,11.67
2019-02-05T15:01:41.536Z,12.40
2019-02-05T15:04:00.156Z,12.33
2019-02-05T15:06:27.655Z,12.20
2019-02-05T15:08:55.156Z,12.23
2019-02-05T15:11:22.624Z,13.03
2019-02-05T15:13:50.075Z,13.23
2019-02-05T15:16:17.525Z,12.97
2019-02-05T15:18:45.261Z,13.30
2019-02-05T15:21:13.075Z,12.77
2019-02-05T15:23:40.488Z,13.37
2019-02-05T15:26:07.934Z,12.90
2019-02-05T15:28:35.705Z,12.87
2019-02-05T15:31:03.261Z,12.97
2019-02-05T15:33:56.349Z,13.00
2019-02-05T15:36:34.872Z,13.30
2019-02-05T15:39:03.904Z,12.63
2019-02-05T15:41:31.355Z,13.27
2019-02-05T15:44:00.668Z,13.60
2019-02-05T15:46:28.075Z,13.33
2019-02-05T15:48:55.522Z,13.47
2019-02-05T15:51:23.035Z,12.40
2019-02-05T15:53:50.600Z,13.10
2019-02-05T15:56:18.081Z,13.30
2019-02-05T15:58:45.747Z,12.33
2019-02-05T16:01:13.225Z,14.10
2019-02-05T16:03:40.974Z,13.50
2019-02-05T16:06:08.436Z,13.43
2019-02-05T16:08:40.168Z,13.37
2019-02-05T16:11:09.350Z,13.33
2019-02-05T16:13:38.851Z,13.43
2019-02-05T16:16:08.066Z,14.20
2019-02-05T16:18:35.524Z,14.40
2019-02-05T16:21:03.396Z,14.57
2019-02-05T16:23:30.831Z,14.87
2019-02-05T16:25:58.268Z,14.47
2019-02-05T16:28:25.868Z,15.03
2019-02-05T16:30:53.326Z,14.63
2019-02-05T16:33:20.782Z,14.50
2019-02-05T16:35:48.579Z,15.53
2019-02-05T16:38:16.198Z,14.37
2019-02-05T16:40:43.709Z,15.30
2019-02-05T16:43:11.275Z,14.50
2019-02-05T16:45:38.861Z,14.40
2019-02-05T16:48:06.390Z,14.37
2019-02-05T16:50:36.379Z,14.47
2019-02-05T16:53:05.227Z,14.43
2019-02-05T16:55:32.887Z,15.37
2019-02-05T16:58:00.432Z,15.10
2019-02-05T17:00:34.550Z,16.43
2019-02-05T17:03:02.764Z,15.50
2019-02-05T17:05:32.391Z,15.80
2019-02-05T17:08:00.542Z,15.70
2019-02-05T17:10:28.781Z,15.83
2019-02-05T17:12:56.774Z,13.73
2019-02-05T17:15:24.379Z,15.27
2019-02-05T17:17:52.040Z,16.07
2019-02-05T17:20:24.631Z,15.93
2019-02-05T17:22:52.147Z,18.53
2019-02-05T17:25:20.881Z,21.60
2019-02-05T17:27:48.448Z,21.90
2019-02-05T17:30:21.127Z,23.23
2019-02-05T17:32:48.634Z,22.93
2019-02-05T17:35:16.112Z,21.63
2019-02-05T17:37:43.589Z,24.70
2019-02-05T17:40:17.038Z,25.20
2019-02-05T17:42:48.087Z,22.77
2019-02-05T17:45:21.117Z,24.00
2019-02-05T17:47:50.405Z,22.80
2019-02-05T17:50:20.179Z,24.93
2019-02-05T17:52:51.214Z,24.87
2019-02-05T17:55:19.915Z,24.03
2019-02-05T17:57:48.293Z,24.93
2019-02-05T18:00:29.721Z,24.27
2019-02-05T18:02:57.637Z,23.00
2019-02-05T18:05:26.971Z,24.77
2019-02-05T18:07:55.704Z,24.77
2019-02-05T18:10:25.040Z,25.33
2019-02-05T18:12:59.778Z,26.40
2019-02-05T18:15:29.783Z,27.07
2019-02-05T18:17:57.836Z,26.83
2019-02-05T18:20:25.910Z,27.03
2019-02-05T18:22:54.327Z,26.57
2019-02-05T18:25:22.300Z,27.47
2019-02-05T18:27:50.068Z,25.97
2019-02-05T18:30:20.789Z,25.33
2019-02-05T18:32:49.812Z,26.30
2019-02-05T18:35:19.247Z,26.80
2019-02-05T18:37:48.774Z,26.23
2019-02-05T18:40:21.701Z,26.77
2019-02-05T18:42:51.132Z,26.43
2019-02-05T18:45:20.593Z,26.03
2019-02-05T18:47:49.807Z,28.23
2019-02-05T18:50:23.614Z,27.90
2019-02-05T18:52:53.012Z,27.80
2019-02-05T18:55:23.415Z,29.33
2019-02-05T18:57:52.301Z,28.70
2019-02-05T19:00:26.545Z,27.37
2019-02-05T19:02:56.186Z,29.17
2019-02-05T19:05:25.843Z,28.60
2019-02-05T19:08:16.403Z,30.87
2019-02-05T19:10:46.250Z,30.97
2019-02-05T19:13:14.122Z,32.40
2019-02-05T19:15:42.567Z,30.20
2019-02-05T19:18:12.254Z,30.83
2019-02-05T19:20:40.314Z,31.37
2019-02-05T19:23:09.091Z,30.30
2019-02-05T19:25:55.558Z,29.07
2019-02-05T19:28:37.486Z,28.77
2019-02-05T19:31:12.592Z,29.40
2019-02-05T19:33:41.306Z,27.43
2019-02-05T19:36:09.960Z,28.73
2019-02-05T19:38:38.688Z,29.37
2019-02-05T19:41:06.355Z,29.87
2019-02-05T19:43:34.660Z,29.10
2019-02-05T19:46:21.736Z,31.30
2019-02-05T19:48:57.814Z,29.37
2019-02-05T19:51:26.811Z,31.57
2019-02-05T19:53:55.143Z,29.03
2019-02-05T19:56:24.719Z,30.00
2019-02-05T19:58:53.393Z,29.93
2019-02-05T20:01:21.720Z,28.73
2019-02-05T20:03:49.892Z,28.83
2019-02-05T20:06:18.543Z,29.13
2019-02-05T20:08:47.559Z,27.10
2019-02-05T20:11:16.908Z,28.77
2019-02-05T20:13:45.567Z,28.93
2019-02-05T20:16:13.638Z,26.70
2019-02-05T20:18:43.848Z,27.07
2019-02-05T20:21:13.040Z,27.60
2019-02-05T20:23:41.394Z,27.63
2019-02-05T20:26:09.974Z,29.80
2019-02-05T20:28:39.010Z,30.27
2019-02-05T20:31:07.153Z,30.27
2019-02-05T20:33:35.980Z,31.47
2019-02-05T20:36:09.602Z,32.47
2019-02-05T20:38:37.988Z,31.50
2019-02-05T20:41:06.155Z,31.40
2019-02-05T20:43:35.519Z,32.83
2019-02-05T20:46:05.588Z,32.67
2019-02-05T20:48:34.141Z,32.13
2019-02-05T20:51:02.663Z,34.53
2019-02-05T20:53:31.866Z,33.67
2019-02-05T20:56:00.339Z,33.17
2019-02-05T20:58:29.269Z,31.67
2019-02-05T21:00:57.655Z,32.93
2019-02-05T21:03:26.513Z,32.13
2019-02-05T21:05:54.601Z,31.93
2019-02-05T21:08:22.707Z,31.50
2019-02-05T21:10:50.694Z,31.77
2019-02-05T21:13:18.585Z,33.43
2019-02-05T21:15:49.067Z,33.97
2019-02-05T21:18:17.629Z,35.77
2019-02-05T21:20:45.347Z,34.53
2019-02-05T21:23:12.964Z,35.63
2019-02-05T21:25:40.536Z,33.57
2019-02-05T21:28:08.094Z,32.37
2019-02-05T21:30:35.770Z,36.30
2019-02-05T21:33:03.490Z,36.03
2019-02-05T21:35:31.042Z,35.93
2019-02-05T21:37:59.143Z,35.77
2019-02-05T21:40:26.620Z,36.07
2019-02-05T21:42:54.142Z,35.00
2019-02-05T21:45:25.331Z,33.90
2019-02-05T21:47:52.923Z,34.83
2019-02-05T21:50:21.647Z,34.77
2019-02-05T21:52:50.752Z,39.17
2019-02-05T21:55:19.025Z,37.17
2019-02-05T21:57:47.848Z,37.37
2019-02-05T22:00:21.862Z,39.80
2019-02-05T22:02:49.557Z,38.30
2019-02-05T22:05:20.182Z,38.17
2019-02-05T22:07:50.047Z,37.30
2019-02-05T22:10:18.370Z,37.30
2019-02-05T22:12:45.962Z,38.10
2019-02-05T22:15:14.045Z,35.23
2019-02-05T22:17:45.843Z,38.10
2019-02-05T22:20:19.533Z,38.33
2019-02-05T22:22:55.945Z,33.60
2019-02-05T22:25:23.295Z,33.90
2019-02-05T22:27:51.677Z,30.17
2019-02-05T22:30:28.360Z,30.77
2019-02-05T22:32:59.768Z,28.30
2019-02-05T22:35:28.698Z,31.30
2019-02-05T22:37:57.421Z,26.33
2019-02-05T22:40:26.423Z,29.17
2019-02-05T22:42:54.844Z,32.07
2019-02-05T22:45:27.793Z,29.97
2019-02-05T22:47:55.271Z,32.47
2019-02-05T22:50:25.002Z,33.17
2019-02-05T22:52:55.683Z,31.57
2019-02-05T22:55:23.640Z,33.03
2019-02-05T22:57:51.126Z,30.80
2019-02-05T23:01:00.218Z,30.73
2019-02-05T23:03:31.498Z,30.00
2019-02-05T23:06:31.043Z,31.17
2019-02-05T23:09:13.592Z,30.30
2019-02-05T23:12:07.267Z,30.17
2019-02-05T23:14:35.076Z,29.00
2019-02-05T23:17:03.586Z,26.63
2019-02-05T23:19:32.659Z,29.07
2019-02-05T23:22:00.621Z,29.53
2019-02-05T23:24:31.157Z,28.57
2019-02-05T23:27:00.278Z,29.23
2019-02-05T23:29:29.880Z,31.60
2019-02-05T23:32:01.100Z,30.87
2019-02-05T23:34:32.343Z,30.10
2019-02-05T23:37:02.364Z,31.13
2019-02-05T23:39:33.910Z,29.57
2019-02-05T23:42:02.215Z,31.33
2019-02-05T23:44:30.280Z,30.13
2019-02-05T23:47:01.247Z,30.80
2019-02-05T23:49:32.074Z,29.50
2019-02-05T23:52:01.066Z,32.87
2019-02-05T23:54:28.680Z,32.00
2019-02-05T23:57:01.985Z,32.80
2019-02-05T23:59:29.567Z,30.57
